Time;durP1;ratioP1;P1;durP2;ratioP2;P2;SDS_P1;SDS_P2;PMS_P1;PMS_P2;Temp;Humidity;BMP_temperature;BMP_pressure;BME280_temperature;BME280_humidity;BME280_pressure;Samples;Min_cycle;Max_cycle;Signal;HPM_P1;HPM_P2
2021/08/13 00:00:01;;;;;;;4.03;3.07;;;;;;;19.58;61.06;100759.59;6245914;28;20048;-77
2021/08/13 00:03:01;;;;;;;4.23;3.50;;;;;;;19.58;60.75;100755.19;6229626;28;20041;-77
2021/08/13 00:06:02;;;;;;;4.73;3.30;;;;;;;19.58;60.83;100749.88;6245684;28;20045;-77
2021/08/13 00:09:03;;;;;;;4.97;3.43;;;;;;;19.58;61.50;100749.03;6246334;28;20416;-77
2021/08/13 00:12:04;;;;;;;5.30;3.33;;;;;;;19.54;62.44;100745.84;6228964;28;20049;-77
2021/08/13 00:15:06;;;;;;;3.40;3.07;;;;;;;19.52;61.38;100751.25;6245271;28;20504;-77
2021/08/13 00:18:07;;;;;;;4.88;3.47;;;;;;;19.54;60.75;100745.84;6245076;28;20525;-77
2021/08/13 00:21:10;;;;;;;4.57;3.37;;;;;;;19.50;61.94;100747.06;6246247;28;20045;-77
2021/08/13 00:24:11;;;;;;;6.88;3.95;;;;;;;19.49;61.58;100743.56;6246192;28;20045;-77
2021/08/13 00:27:12;;;;;;;8.13;4.30;;;;;;;19.45;61.25;100743.97;6245036;28;20042;-77
2021/08/13 00:30:14;;;;;;;7.10;3.85;;;;;;;19.48;61.62;100739.25;6245155;28;20057;-77
2021/08/13 00:33:14;;;;;;;6.63;3.90;;;;;;;19.47;62.39;100737.56;6245920;28;20476;-77
2021/08/13 00:36:15;;;;;;;4.67;3.60;;;;;;;19.52;61.42;100743.31;6244988;28;20045;-78
2021/08/13 00:39:16;;;;;;;5.77;4.00;;;;;;;19.53;61.84;100734.38;6244817;28;20034;-77
2021/08/13 00:42:17;;;;;;;6.13;3.70;;;;;;;19.49;62.52;100746.22;6244855;28;20269;-77
2021/08/13 00:45:17;;;;;;;6.97;4.17;;;;;;;19.46;63.27;100749.13;6245966;28;20079;-77
2021/08/13 00:48:18;;;;;;;5.43;3.90;;;;;;;19.38;62.92;100742.84;6244706;28;20048;-77
2021/08/13 00:51:19;;;;;;;4.83;3.87;;;;;;;19.42;62.71;100755.66;6244674;28;20038;-77
2021/08/13 00:54:20;;;;;;;6.37;3.80;;;;;;;19.42;62.81;100754.84;6245009;28;20520;-77
2021/08/13 00:57:21;;;;;;;;;;;;;;;19.41;63.13;100759.28;6245437;28;20049;-77
2021/08/13 01:00:22;;;;;;;5.30;3.55;;;;;;;19.41;62.54;100761.09;6244673;28;20319;-77
2021/08/13 01:03:24;;;;;;;4.13;3.57;;;;;;;19.41;63.74;100753.97;6245706;28;20107;-77
2021/08/13 01:06:25;;;;;;;7.88;3.78;;;;;;;19.35;63.25;100761.63;6228158;28;20045;-77
2021/08/13 01:09:25;;;;;;;5.47;4.30;;;;;;;19.40;64.11;100760.25;6245514;28;20048;-77
2021/08/13 01:12:55;;;;;;;7.67;4.20;;;;;;;19.39;63.44;100758.56;6228090;28;20043;-77
2021/08/13 01:15:59;;;;;;;5.32;3.75;;;;;;;19.39;63.37;100763.03;6237528;28;20148;-76
2021/08/13 01:19:08;;;;;;;4.90;4.00;;;;;;;19.40;63.98;100765.56;6250487;28;20609;-78
2021/08/13 01:22:13;;;;;;;5.63;4.15;;;;;;;19.34;64.53;100763.44;6249131;28;20064;-77
2021/08/13 01:25:20;;;;;;;4.88;3.90;;;;;;;19.28;64.10;100761.31;6249093;28;20037;-77
2021/08/13 01:29:02;;;;;;;5.20;4.10;;;;;;;19.28;65.62;100761.31;6250445;28;20041;-77
2021/08/13 01:32:12;;;;;;;;;;;;;;;19.29;64.80;100769.13;6249323;28;20050;-77
2021/08/13 01:35:22;;;;;;;7.03;4.22;;;;;;;19.25;65.89;100772.16;6249987;28;20019;-77
2021/08/13 01:38:26;;;;;;;5.35;4.30;;;;;;;19.19;65.88;100767.38;6249999;28;20405;-78
2021/08/13 01:41:33;;;;;;;9.50;4.60;;;;;;;19.11;66.61;100776.84;6249921;28;20050;-77
2021/08/13 01:44:36;;;;;;;5.68;4.30;;;;;;;19.09;66.54;100768.19;6249897;28;20037;-77
2021/08/13 01:47:39;;;;;;;7.60;4.25;;;;;;;19.09;65.54;100772.66;6250779;28;20041;-77
2021/08/13 01:50:41;;;;;;;5.68;4.32;;;;;;;19.13;65.85;100769.59;6248473;28;20726;-77
2021/08/13 01:53:42;;;;;;;5.65;4.15;;;;;;;19.14;65.41;100773.09;6248491;28;20046;-77
2021/08/13 01:56:45;;;;;;;7.03;4.50;;;;;;;19.13;65.07;100782.84;6232026;28;20091;-77
2021/08/13 01:59:46;;;;;;;6.97;4.22;;;;;;;19.16;66.51;100776.44;6249815;28;20074;-77
2021/08/13 02:02:48;;;;;;;7.90;4.60;;;;;;;18.99;67.91;100777.06;6248360;28;20144;-77
2021/08/13 02:05:52;;;;;;;6.40;4.55;;;;;;;18.93;68.52;100778.41;6249410;28;20054;-77
2021/08/13 02:08:54;;;;;;;7.65;4.50;;;;;;;18.75;69.53;100779.94;6247882;28;20053;-77
2021/08/13 02:11:55;;;;;;;;;;;;;;;18.71;68.88;100784.63;6248419;28;20460;-77
2021/08/13 02:14:56;;;;;;;10.65;4.85;;;;;;;18.67;69.53;100786.69;6249021;28;20454;-77
2021/08/13 02:18:09;;;;;;;7.90;5.00;;;;;;;18.65;69.83;100785.97;6231476;28;20051;-77
2021/08/13 02:21:13;;;;;;;5.60;4.65;;;;;;;18.68;70.23;100787.53;6248894;28;20420;-77
2021/08/13 02:24:17;;;;;;;10.25;4.15;;;;;;;18.66;70.85;100789.47;6247663;28;20041;-77
2021/08/13 02:27:18;;;;;;;5.65;4.25;;;;;;;18.73;69.94;100786.16;6247466;28;20052;-77
2021/08/13 02:30:19;;;;;;;6.00;4.53;;;;;;;18.71;70.07;100780.16;6248848;28;20041;-77
2021/08/13 02:33:21;;;;;;;7.73;4.97;;;;;;;18.71;69.81;100787.25;6248798;28;20048;-77
2021/08/13 02:36:34;;;;;;;8.98;5.00;;;;;;;18.71;70.93;100784.63;6247505;28;20076;-77
2021/08/13 02:39:55;;;;;;;7.68;4.75;;;;;;;18.62;72.10;100791.53;6248582;28;20044;-77
2021/08/13 02:43:09;;;;;;;6.47;4.95;;;;;;;18.59;71.52;100789.13;6248509;28;20451;-77
2021/08/13 02:46:14;;;;;;;6.43;4.55;;;;;;;18.57;70.62;100792.88;6230632;28;20042;-77
2021/08/13 02:49:16;;;;;;;8.32;5.25;;;;;;;18.59;71.13;100793.56;6248329;28;20487;-77
2021/08/13 02:52:23;;;;;;;6.65;4.80;;;;;;;18.59;72.14;100783.00;6248183;28;20404;-77
2021/08/13 02:55:34;;;;;;;5.65;4.70;;;;;;;18.57;72.77;100780.47;6248145;28;20052;-77
2021/08/13 02:58:48;;;;;;;10.15;4.82;;;;;;;18.53;72.86;100773.78;6248266;28;20056;-77
2021/08/13 03:01:51;;;;;;;6.97;5.03;;;;;;;18.42;73.25;100766.75;6248091;28;20042;-77
2021/08/13 03:04:54;;;;;;;7.63;5.32;;;;;;;18.43;73.46;100770.22;6263325;28;20120;-77
2021/08/13 03:07:55;;;;;;;9.35;5.25;;;;;;;18.33;74.34;100771.00;6249676;28;20103;-77
2021/08/13 03:10:57;;;;;;;8.60;5.40;;;;;;;18.35;74.49;100767.41;6248839;28;20033;-77
2021/08/13 03:13:58;;;;;;;8.73;5.03;;;;;;;18.28;74.60;100767.91;6250389;28;20045;-77
2021/08/13 03:17:00;;;;;;;8.33;4.93;;;;;;;18.30;74.55;100771.25;6247888;28;20042;-77
2021/08/13 03:20:03;;;;;;;6.93;4.63;;;;;;;18.26;74.46;100777.75;6247841;28;20393;-77
2021/08/13 03:23:06;;;;;;;14.35;5.15;;;;;;;18.30;73.60;100784.47;6246536;28;20512;-77
2021/08/13 03:26:07;;;;;;;16.75;5.00;;;;;;;18.24;74.62;100774.41;6246395;28;20412;-77
2021/08/13 03:29:08;;;;;;;12.02;5.13;;;;;;;18.25;75.09;100772.59;6246522;28;20407;-77
2021/08/13 03:32:09;;;;;;;7.70;5.10;;;;;;;18.31;73.59;100774.72;6247240;28;20099;-77
2021/08/13 03:35:10;;;;;;;8.38;5.40;;;;;;;18.37;73.44;100770.75;6245864;28;20139;-77
2021/08/13 03:38:11;;;;;;;10.23;4.77;;;;;;;18.33;74.11;100776.28;6247209;28;20051;-77
2021/08/13 03:41:13;;;;;;;7.07;4.68;;;;;;;18.37;72.13;100771.59;6245920;28;20045;-77
2021/08/13 03:44:13;;;;;;;5.72;4.35;;;;;;;18.39;74.24;100776.72;6247810;28;20045;-77
2021/08/13 03:47:14;;;;;;;9.30;4.80;;;;;;;18.39;72.44;100777.56;6245725;28;20044;-77
2021/08/13 03:50:15;;;;;;;6.97;4.53;;;;;;;18.42;72.11;100779.94;6247025;28;20076;-77
2021/08/13 03:53:16;;;;;;;7.18;5.00;;;;;;;18.39;72.86;100782.00;6246822;28;20049;-77
2021/08/13 03:56:17;;;;;;;5.87;4.60;;;;;;;18.42;72.95;100781.75;6245845;28;20377;-77
2021/08/13 03:59:17;;;;;;;5.97;4.17;;;;;;;18.43;72.81;100779.00;6245737;28;20052;-77
2021/08/13 04:02:18;;;;;;;11.90;4.83;;;;;;;18.44;72.31;100775.38;6245405;28;20049;-77
2021/08/13 04:05:19;;;;;;;8.52;4.40;;;;;;;18.45;72.16;100781.50;6245457;28;20050;-77
2021/08/13 04:08:20;;;;;;;10.98;4.80;;;;;;;18.47;71.87;100783.06;6228964;28;20144;-77
2021/08/13 04:11:20;;;;;;;6.97;4.53;;;;;;;18.49;71.79;100778.50;6245919;28;20057;-77
2021/08/13 04:14:21;;;;;;;8.10;4.65;;;;;;;18.50;73.14;100779.31;6245732;28;20128;-76
2021/08/13 04:17:22;;;;;;;9.35;4.72;;;;;;;18.49;72.39;100781.13;6245431;28;20073;-77
2021/08/13 04:20:22;;;;;;;13.45;4.70;;;;;;;18.49;72.36;100772.34;6245480;28;20037;-77
2021/08/13 04:23:23;;;;;;;8.93;4.73;;;;;;;18.52;72.29;100772.09;6245007;28;20041;-77
2021/08/13 04:26:24;;;;;;;9.00;4.57;;;;;;;18.55;72.35;100769.19;6246074;28;20045;-77
2021/08/13 04:29:25;;;;;;;7.50;4.37;;;;;;;18.60;71.62;100779.41;6245285;28;20041;-78
2021/08/13 04:32:25;;;;;;;7.17;4.33;;;;;;;18.61;72.80;100781.91;6245187;28;20045;-77
2021/08/13 04:35:26;;;;;;;6.87;4.23;;;;;;;18.72;71.03;100786.31;6246308;28;20045;-77
2021/08/13 04:38:27;;;;;;;8.40;4.85;;;;;;;18.77;71.50;100796.50;6245180;28;20068;-77
2021/08/13 04:41:28;;;;;;;7.03;4.20;;;;;;;18.79;72.06;100798.06;6244774;28;20107;-77
2021/08/13 04:44:28;;;;;;;7.70;4.38;;;;;;;18.82;73.03;100804.91;6245009;28;20045;-77
2021/08/13 04:47:29;;;;;;;8.80;4.30;;;;;;;18.81;72.67;100805.88;6244562;28;20548;-77
2021/08/13 04:50:30;;;;;;;8.57;4.30;;;;;;;18.81;72.20;100811.16;6245647;28;20037;-77
2021/08/13 04:53:30;;;;;;;7.97;4.13;;;;;;;18.88;72.98;100805.25;6249935;28;20092;-77
2021/08/13 04:56:31;;;;;;;7.95;4.03;;;;;;;18.92;71.86;100814.59;6249875;28;20073;-77
2021/08/13 04:59:32;;;;;;;13.70;4.83;;;;;;;18.95;72.01;100808.19;6233459;28;20112;-77
2021/08/13 05:02:35;;;;;;;7.33;4.30;;;;;;;19.02;72.25;100811.16;6249671;28;20124;-77
2021/08/13 05:05:36;;;;;;;11.55;3.95;;;;;;;19.08;71.09;100814.13;6250901;28;20107;-77
2021/08/13 05:08:38;;;;;;;7.13;4.47;;;;;;;19.10;71.93;100821.94;6250489;28;20054;-77
2021/08/13 05:11:39;;;;;;;11.63;4.60;;;;;;;19.15;70.87;100827.69;6249095;28;20559;-77
2021/08/13 05:14:39;;;;;;;12.37;5.67;;;;;;;19.23;69.90;100829.66;6233133;28;20037;-77
2021/08/13 05:17:40;;;;;;;11.10;6.00;;;;;;;19.30;71.50;100836.09;6249583;28;20068;-77
2021/08/13 05:20:42;;;;;;;8.65;5.05;;;;;;;19.36;69.81;100840.88;6250871;28;20041;-77
2021/08/13 05:23:43;;;;;;;6.77;4.90;;;;;;;19.42;69.50;100837.72;6244455;28;20111;-77
2021/08/13 05:26:44;;;;;;;9.77;4.50;;;;;;;19.43;70.39;100839.38;6247312;28;20038;-77
2021/08/13 05:29:44;;;;;;;8.73;3.90;;;;;;;19.49;70.72;100845.94;6233105;28;20037;-77
2021/08/13 05:32:47;;;;;;;6.63;3.90;;;;;;;19.58;68.74;100847.81;6250345;28;20124;-78
2021/08/13 05:35:48;;;;;;;10.25;4.32;;;;;;;19.68;68.87;100842.53;6233236;28;20053;-77
2021/08/13 05:38:49;;;;;;;7.03;4.07;;;;;;;19.71;69.59;100845.81;6248936;28;20182;-77
2021/08/13 05:41:50;;;;;;;6.80;4.50;;;;;;;19.81;70.76;100847.63;6248860;28;20120;-77
2021/08/13 05:44:50;;;;;;;10.17;4.33;;;;;;;19.86;68.60;100843.63;6248759;28;20092;-77
2021/08/13 05:47:51;;;;;;;7.73;4.10;;;;;;;19.92;69.33;100843.06;6248427;28;20041;-77
2021/08/13 05:50:52;;;;;;;5.03;3.70;;;;;;;19.99;67.44;100832.78;6230863;28;20049;-77
2021/08/13 05:53:52;;;;;;;8.37;3.63;;;;;;;20.06;66.50;100828.63;6248609;28;20065;-77
2021/08/13 05:56:53;;;;;;;8.30;3.93;;;;;;;20.09;68.99;100828.34;6249247;28;20056;-75
2021/08/13 05:59:54;;;;;;;8.03;3.80;;;;;;;20.16;67.41;100827.78;6248040;28;20120;-75
2021/08/13 06:02:58;;;;;;;4.67;3.60;;;;;;;20.24;66.86;100836.75;6231273;28;20485;-75
2021/08/13 06:06:06;;;;;;;5.75;3.53;;;;;;;20.33;66.34;100835.06;6249079;28;20042;-75
2021/08/13 06:09:06;;;;;;;8.20;3.20;;;;;;;20.44;65.09;100839.41;6248729;28;20128;-75
2021/08/13 06:12:07;;;;;;;8.03;3.93;;;;;;;20.49;64.10;100837.19;6247688;28;20041;-74
2021/08/13 06:15:09;;;;;;;5.50;3.17;;;;;;;20.57;63.43;100832.03;6215266;28;20507;-75
2021/08/13 06:18:09;;;;;;;4.80;2.90;;;;;;;20.65;64.26;100828.69;6247602;28;20048;-75
2021/08/13 06:21:10;;;;;;;10.00;3.83;;;;;;;20.73;65.58;100840.28;6248815;28;20033;-75
2021/08/13 06:24:11;;;;;;;8.70;3.10;;;;;;;20.82;61.61;100841.25;6247483;28;20069;-75
2021/08/13 06:27:12;;;;;;;4.67;2.97;;;;;;;20.90;63.50;100838.75;6248499;28;20041;-74
2021/08/13 06:30:17;;;;;;;5.53;3.33;;;;;;;20.98;61.76;100853.94;6247419;28;20041;-74
2021/08/13 06:33:18;;;;;;;5.22;3.40;;;;;;;21.05;62.62;100852.38;6248659;28;20042;-78
2021/08/13 06:36:18;;;;;;;5.07;2.73;;;;;;;21.10;62.61;100857.25;6247186;28;20049;-78
2021/08/13 06:39:19;;;;;;;6.60;4.00;;;;;;;21.19;60.08;100859.06;6249266;28;20382;-74
2021/08/13 06:42:20;;;;;;;10.00;3.77;;;;;;;21.27;61.05;100866.31;6247779;28;20064;-75
2021/08/13 06:45:25;;;;;;;7.77;3.37;;;;;;;21.36;59.97;100854.84;6247352;28;20042;-75
2021/08/13 06:48:26;;;;;;;4.85;2.95;;;;;;;21.48;57.88;100851.06;6211643;28;20130;-74
2021/08/13 06:51:30;;;;;;;6.72;2.90;;;;;;;21.56;59.63;100846.81;6245341;28;20393;-75
2021/08/13 06:54:30;;;;;;;7.20;3.27;;;;;;;21.63;57.99;100837.31;6246071;28;20076;-76
2021/08/13 06:57:32;;;;;;;4.70;2.90;;;;;;;21.65;59.18;100840.66;6246669;28;20048;-78
2021/08/13 07:00:35;;;;;;;5.35;3.20;;;;;;;21.67;59.34;100842.16;6248345;28;20048;-78
2021/08/13 07:03:36;;;;;;;4.18;2.90;;;;;;;21.74;56.29;100834.44;6246408;28;20041;-78
2021/08/13 07:06:36;;;;;;;9.50;3.30;;;;;;;21.85;56.27;100841.41;6246558;28;20069;-78
2021/08/13 07:09:37;;;;;;;8.10;2.80;;;;;;;21.86;57.62;100843.91;6246839;28;20053;-77
2021/08/13 07:12:40;;;;;;;5.50;2.70;;;;;;;21.89;58.20;100842.78;6246268;28;20264;-78
2021/08/13 07:15:40;;;;;;;4.03;2.90;;;;;;;21.94;55.86;100844.00;6245707;28;20052;-77
2021/08/13 07:18:41;;;;;;;4.17;2.60;;;;;;;21.98;58.57;100838.41;6247434;28;20037;-76
2021/08/13 07:21:42;;;;;;;5.43;3.37;;;;;;;22.08;57.37;100841.81;6246105;28;20095;-76
2021/08/13 07:24:43;;;;;;;4.40;2.57;;;;;;;22.15;58.67;100845.53;6247393;28;20034;-77
2021/08/13 07:27:44;;;;;;;5.90;3.07;;;;;;;22.22;58.50;100848.47;6245894;28;20059;-77
2021/08/13 07:30:44;;;;;;;4.60;3.05;;;;;;;22.28;58.13;100856.69;6229909;28;20045;-78
2021/08/13 07:33:45;;;;;;;6.10;2.97;;;;;;;22.32;57.42;100851.91;6229382;28;20114;-76
2021/08/13 07:36:46;;;;;;;7.10;3.37;;;;;;;22.38;57.20;100855.78;6245831;28;20052;-77
2021/08/13 07:39:48;;;;;;;4.33;2.93;;;;;;;22.44;57.59;100852.50;6245680;28;20034;-75
2021/08/13 07:42:50;;;;;;;3.67;2.80;;;;;;;22.50;59.84;100859.88;6244799;28;20111;-78
2021/08/13 07:45:50;;;;;;;;;;;;;;;22.60;56.21;100862.47;6247125;28;20048;-75
2021/08/13 07:48:51;;;;;;;6.25;2.83;;;;;;;22.64;58.23;100859.34;6245370;28;19921;-74
2021/08/13 07:51:52;;;;;;;4.47;2.80;;;;;;;22.70;56.20;100864.06;6244948;28;20046;-74
2021/08/13 07:54:53;;;;;;;7.70;2.63;;;;;;;22.76;55.92;100861.78;6246574;28;20037;-77
2021/08/13 07:57:57;;;;;;;8.07;2.80;;;;;;;22.77;56.66;100869.59;6246444;28;20046;-77
2021/08/13 08:00:57;;;;;;;5.82;3.00;;;;;;;22.83;51.98;100860.19;6228910;28;20131;-75
2021/08/13 08:03:58;;;;;;;4.00;2.53;;;;;;;22.88;53.37;100871.22;6245163;28;20042;-78
2021/08/13 08:06:59;;;;;;;3.97;2.80;;;;;;;22.92;54.16;100869.91;6245156;28;20042;-75
2021/08/13 08:10:00;;;;;;;4.35;2.72;;;;;;;22.96;53.55;100867.75;6228774;28;20053;-76
2021/08/13 08:13:01;;;;;;;6.77;2.73;;;;;;;23.03;55.24;100872.34;6245101;28;20128;-75
2021/08/13 08:16:05;;;;;;;5.72;2.60;;;;;;;23.06;53.47;100879.19;6246139;28;20077;-75
2021/08/13 08:19:05;;;;;;;4.00;2.60;;;;;;;23.11;50.66;100877.72;6229219;28;20481;-74
2021/08/13 08:22:06;;;;;;;9.03;2.40;;;;;;;23.17;50.89;100873.63;6228540;28;20041;-74
2021/08/13 08:25:07;;;;;;;4.90;2.67;;;;;;;23.22;51.25;100876.63;6244063;28;20048;-74
2021/08/13 08:28:08;;;;;;;;;;;;;;;23.27;49.46;100877.00;6246566;28;20046;-75
2021/08/13 08:31:09;;;;;;;7.18;2.58;;;;;;;23.33;50.29;100876.38;6228630;28;20022;-74
2021/08/13 08:34:10;;;;;;;5.17;2.30;;;;;;;23.38;49.81;100875.91;6228553;28;20033;-77
2021/08/13 08:37:11;;;;;;;4.10;2.53;;;;;;;23.42;50.45;100873.78;6228623;28;20045;-78
2021/08/13 08:40:12;;;;;;;4.22;2.45;;;;;;;23.44;51.59;100877.94;6214177;28;20279;-78
2021/08/13 08:43:13;;;;;;;5.77;2.60;;;;;;;23.47;50.15;100874.97;6229744;28;20481;-79
2021/08/13 08:46:18;;;;;;;5.40;2.83;;;;;;;23.52;48.65;100871.84;6244268;28;20049;-76
2021/08/13 08:49:20;;;;;;;5.72;2.50;;;;;;;23.65;50.21;100887.38;6244167;28;20052;-76
2021/08/13 08:52:25;;;;;;;4.45;2.42;;;;;;;23.72;50.31;100886.59;6226026;28;20049;-76
2021/08/13 08:55:26;;;;;;;5.80;2.60;;;;;;;23.74;47.45;100887.28;6245198;28;20067;-78
2021/08/13 08:58:32;;;;;;;6.55;2.58;;;;;;;23.77;48.67;100880.81;6244316;28;20473;-76
2021/08/13 09:01:33;;;;;;;5.07;2.30;;;;;;;23.83;46.95;100887.34;6243515;28;20043;-73
2021/08/13 09:04:34;;;;;;;7.03;2.38;;;;;;;23.86;48.16;100892.34;6244077;28;20524;-74
2021/08/13 09:07:35;;;;;;;4.70;2.42;;;;;;;23.90;45.74;100888.34;6243801;28;20037;-74
2021/08/13 09:10:36;;;;;;;8.97;2.50;;;;;;;23.98;46.59;100887.56;6243852;28;20493;-74
2021/08/13 09:13:38;;;;;;;3.58;2.58;;;;;;;24.06;45.54;100890.25;6243997;28;20103;-74
2021/08/13 09:16:42;;;;;;;3.88;2.60;;;;;;;24.04;47.99;100895.75;6243785;28;20050;-73
2021/08/13 09:19:44;;;;;;;4.22;2.60;;;;;;;24.09;44.36;100896.13;6243978;28;20401;-74
2021/08/13 09:22:45;;;;;;;5.45;2.55;;;;;;;24.13;46.59;100901.94;6243795;28;20428;-74
2021/08/13 09:25:46;;;;;;;3.20;2.33;;;;;;;24.13;47.51;100896.59;6245034;28;20048;-74
2021/08/13 09:29:01;;;;;;;4.40;2.23;;;;;;;24.18;43.78;100901.47;6227448;28;20038;-74
2021/08/13 09:32:02;;;;;;;5.85;2.33;;;;;;;24.24;41.65;100890.16;6245209;28;20549;-74
2021/08/13 09:35:03;;;;;;;8.38;2.70;;;;;;;24.29;43.56;100901.16;6211116;28;20092;-73
2021/08/13 09:38:13;;;;;;;6.68;2.60;;;;;;;24.32;43.54;100888.34;6248212;28;20416;-73
2021/08/13 09:41:17;;;;;;;6.38;2.30;;;;;;;24.32;46.25;100888.34;6249412;28;20050;-73
2021/08/13 09:44:26;;;;;;;6.65;2.72;;;;;;;24.46;42.47;100880.69;6249764;28;20038;-74
2021/08/13 09:47:46;;;;;;;4.35;2.40;;;;;;;24.56;44.03;100885.91;6249211;28;20543;-73
2021/08/13 09:50:47;;;;;;;3.95;2.25;;;;;;;24.61;42.06;100889.75;6248133;28;20116;-74
2021/08/13 09:54:05;;;;;;;5.30;2.63;;;;;;;24.68;42.92;100881.91;6231787;28;20075;-74
2021/08/13 09:57:11;;;;;;;3.20;2.60;;;;;;;24.72;43.95;100889.41;6249076;28;20119;-73
2021/08/13 10:00:14;;;;;;;5.85;2.40;;;;;;;24.85;41.49;100885.41;6249334;28;20080;-73
2021/08/13 10:03:15;;;;;;;7.93;3.08;;;;;;;24.88;44.04;100882.44;6249237;28;20041;-74
2021/08/13 10:06:29;;;;;;;2.65;2.35;;;;;;;24.97;42.66;100889.44;6231208;28;20437;-73
2021/08/13 10:09:31;;;;;;;3.05;2.38;;;;;;;24.97;46.25;100884.09;6248632;28;20046;-74
2021/08/13 10:12:45;;;;;;;3.83;2.58;;;;;;;24.97;46.84;100885.94;6248737;28;20551;-74
2021/08/13 10:15:47;;;;;;;8.23;2.60;;;;;;;25.02;44.71;100880.91;6231303;28;20053;-74
2021/08/13 10:18:50;;;;;;;7.63;2.60;;;;;;;24.97;45.01;100877.91;6247447;28;20045;-73
2021/08/13 10:21:51;;;;;;;5.28;2.67;;;;;;;25.06;44.80;100879.56;6247424;28;20045;-74
2021/08/13 10:24:52;;;;;;;4.85;2.72;;;;;;;25.10;45.40;100872.88;6247355;28;20065;-73
2021/08/13 10:27:53;;;;;;;4.77;2.50;;;;;;;25.23;41.90;100867.09;6230803;28;20377;-74
2021/08/13 10:30:55;;;;;;;3.45;2.33;;;;;;;25.29;42.88;100866.41;6231034;28;20309;-74
2021/08/13 10:33:56;;;;;;;6.28;2.70;;;;;;;25.38;41.03;100861.88;6249050;28;20130;-73
2021/08/13 10:36:57;;;;;;;4.65;2.50;;;;;;;25.47;44.03;100866.19;6231036;28;20438;-74
2021/08/13 10:39:58;;;;;;;;;;;;;;;25.55;43.09;100863.47;6248782;28;20041;-74
2021/08/13 10:43:00;;;;;;;4.50;2.70;;;;;;;25.60;43.65;100866.47;6247028;28;19972;-74
2021/08/13 10:46:05;;;;;;;8.55;2.20;;;;;;;25.74;45.13;100864.94;6230563;28;20045;-74
2021/08/13 10:49:09;;;;;;;3.65;2.50;;;;;;;25.79;41.75;100870.59;6247235;28;20042;-74
2021/08/13 10:52:10;;;;;;;5.28;2.88;;;;;;;25.79;43.10;100867.09;6246639;28;20120;-73
2021/08/13 10:55:44;;;;;;;5.20;2.40;;;;;;;25.90;45.04;100864.03;6230394;28;20064;-74
2021/08/13 10:58:46;;;;;;;3.67;2.53;;;;;;;25.96;45.45;100866.03;6246551;28;20294;-74
2021/08/13 11:02:10;;;;;;;5.57;2.72;;;;;;;26.06;42.23;100869.31;6230124;28;20061;-74
2021/08/13 11:05:11;;;;;;;6.40;2.75;;;;;;;26.13;45.25;100864.13;6246327;28;20049;-74
2021/08/13 11:08:11;;;;;;;4.38;2.70;;;;;;;26.17;40.90;100854.72;6229540;28;20107;-74
2021/08/13 11:11:17;;;;;;;3.37;2.53;;;;;;;26.14;45.31;100850.56;6229514;28;20049;-74
2021/08/13 11:14:28;;;;;;;4.65;2.42;;;;;;;26.19;45.15;100850.03;6246143;28;20274;-74
2021/08/13 11:17:39;;;;;;;8.98;2.40;;;;;;;26.43;42.38;100834.81;6247194;28;20050;-74
2021/08/13 11:20:41;;;;;;;;;;;;;;;26.82;39.37;100837.38;6247594;28;20052;-73
2021/08/13 11:24:05;;;;;;;7.28;2.97;;;;;;;27.02;37.69;100840.38;6245920;28;19925;-74
2021/08/13 11:27:07;;;;;;;8.32;2.75;;;;;;;27.14;39.88;100838.09;6246944;28;20037;-74
2021/08/13 11:30:46;;;;;;;5.32;2.53;;;;;;;27.25;38.47;100834.97;6246858;28;20048;-74
2021/08/13 11:33:47;;;;;;;8.05;2.65;;;;;;;27.58;39.14;100837.28;6246570;28;20068;-74
2021/08/13 11:36:53;;;;;;;3.23;2.50;;;;;;;27.92;37.04;100836.72;6245635;28;20045;-74
2021/08/13 11:39:55;;;;;;;3.05;2.47;;;;;;;29.00;36.17;100839.41;6229269;28;20698;-74
2021/08/13 11:42:59;;;;;;;3.83;2.22;;;;;;;31.87;32.65;100840.66;6229084;28;20385;-74
2021/08/13 11:46:00;;;;;;;3.42;2.50;;;;;;;34.20;28.10;100837.69;6245384;28;20052;-74
2021/08/13 11:49:03;;;;;;;3.60;2.38;;;;;;;35.00;26.33;100841.00;6246931;28;20041;-74
2021/08/13 11:52:04;;;;;;;6.10;2.80;;;;;;;35.45;25.27;100846.59;6245315;28;20065;-74
2021/08/13 11:55:20;;;;;;;;;;;;;;;36.00;24.38;100839.84;6245855;28;20488;-74
2021/08/13 11:58:24;;;;;;;5.85;2.60;;;;;;;36.65;23.95;100838.56;6246214;28;19927;-74
2021/08/13 12:01:25;;;;;;;8.25;2.70;;;;;;;38.68;20.15;100828.66;6245009;28;20048;-75
2021/08/13 12:04:25;;;;;;;4.93;2.40;;;;;;;39.62;19.27;100832.44;6224916;28;20038;-72
2021/08/13 12:07:28;;;;;;;3.85;2.42;;;;;;;40.12;18.43;100832.81;6213407;28;20125;-72
2021/08/13 12:10:31;;;;;;;3.35;2.58;;;;;;;40.97;18.82;100834.13;6220220;28;20050;-72
2021/08/13 12:13:32;;;;;;;5.97;2.35;;;;;;;39.20;19.15;100824.34;6236707;28;20042;-72
2021/08/13 12:16:33;;;;;;;4.55;2.30;;;;;;;40.31;19.76;100827.66;6221528;28;20077;-72
2021/08/13 12:19:34;;;;;;;4.03;2.58;;;;;;;40.91;18.79;100829.78;6187739;28;20053;-72
2021/08/13 12:22:40;;;;;;;4.38;2.30;;;;;;;41.23;18.90;100827.50;6220212;28;20073;-72
2021/08/13 12:25:43;;;;;;;10.48;2.50;;;;;;;41.04;17.95;100823.69;6220435;28;20095;-72
2021/08/13 12:28:43;;;;;;;10.48;2.35;;;;;;;40.48;18.86;100820.00;6219849;28;20042;-72
2021/08/13 12:31:59;;;;;;;5.32;2.30;;;;;;;40.92;17.31;100820.47;6187792;28;20054;-72
2021/08/13 12:35:00;;;;;;;6.75;2.33;;;;;;;40.81;17.47;100830.63;6221020;28;20108;-72
2021/08/13 12:38:00;;;;;;;6.55;2.42;;;;;;;40.99;17.62;100819.06;6203672;28;20461;-72
2021/08/13 12:41:01;;;;;;;8.07;2.35;;;;;;;39.55;19.37;100814.66;6203498;28;20038;-72
2021/08/13 12:44:02;;;;;;;5.75;2.38;;;;;;;37.46;21.06;100804.59;6203682;28;20042;-72
2021/08/13 12:47:04;;;;;;;5.43;2.53;;;;;;;36.48;22.73;100810.53;6203354;28;20160;-72
2021/08/13 12:50:12;;;;;;;3.72;2.58;;;;;;;36.03;25.15;100804.03;6221038;28;20053;-72
2021/08/13 12:53:13;;;;;;;5.30;2.38;;;;;;;34.98;25.48;100800.56;6220896;28;20485;-72
2021/08/13 12:56:21;;;;;;;4.00;2.80;;;;;;;34.49;27.83;100794.53;6219914;28;20050;-75
2021/08/13 12:59:33;;;;;;;3.15;2.50;;;;;;;33.80;26.38;100783.28;6221001;28;20046;-75
2021/08/13 13:02:34;;;;;;;5.50;2.53;;;;;;;33.25;27.10;100789.56;6219688;28;20065;-74
2021/08/13 13:05:35;;;;;;;6.43;2.70;;;;;;;33.09;28.82;100791.84;6220854;28;20044;-75
2021/08/13 13:08:44;;;;;;;7.15;2.75;;;;;;;32.95;29.13;100793.00;6219228;28;20050;-74
2021/08/13 13:11:44;;;;;;;7.75;2.70;;;;;;;32.79;28.94;100785.47;6220630;28;20077;-80
2021/08/13 13:14:46;;;;;;;6.07;2.47;;;;;;;32.19;30.39;100781.34;6208170;28;20048;-75
2021/08/13 13:17:55;;;;;;;3.78;2.70;;;;;;;32.06;28.11;100784.13;6225766;28;20129;-75
2021/08/13 13:20:56;;;;;;;3.83;2.60;;;;;;;31.98;29.77;100778.97;6225429;28;20172;-75
2021/08/13 13:23:57;;;;;;;4.05;2.63;;;;;;;31.96;31.71;100779.22;6224686;28;20564;-75
2021/08/13 13:27:00;;;;;;;4.75;2.63;;;;;;;31.94;30.57;100781.28;6207733;28;20034;-74
2021/08/13 13:30:01;;;;;;;11.48;2.85;;;;;;;31.80;30.76;100777.84;6224208;28;20042;-74
2021/08/13 13:33:10;;;;;;;6.70;3.47;;;;;;;31.72;32.48;100770.00;6191393;28;20076;-75
2021/08/13 13:36:11;;;;;;;5.32;2.47;;;;;;;31.49;33.35;100765.97;6225485;28;20412;-75
2021/08/13 13:39:11;;;;;;;;;;;;;;;31.53;31.01;100769.88;6208110;28;20046;-75
2021/08/13 13:42:12;;;;;;;4.13;2.60;;;;;;;31.46;32.83;100760.16;6224799;28;19921;-75
2021/08/13 13:45:14;;;;;;;;;;;;;;;31.36;31.82;100762.47;6207720;28;20360;-74
2021/08/13 13:48:15;;;;;;;5.50;2.92;;;;;;;31.25;30.98;100767.47;6223523;28;20020;-74
2021/08/13 13:51:16;;;;;;;;;;;;;;;31.14;31.60;100760.06;6223870;28;20496;-74
2021/08/13 13:54:16;;;;;;;7.97;2.88;;;;;;;31.04;33.56;100755.09;6223576;28;19921;-74
2021/08/13 13:57:17;;;;;;;;;;;;;;;30.94;33.67;100757.41;6223897;28;20049;-74
2021/08/13 14:00:19;;;;;;;3.83;2.90;;;;;;;30.72;30.79;100746.88;6224694;28;19994;-75
2021/08/13 14:03:20;;;;;;;4.57;2.72;;;;;;;30.71;31.13;100749.75;6223099;28;20053;-74
2021/08/13 14:06:20;;;;;;;;;;;;;;;30.65;33.36;100732.56;6223317;28;20049;-74
2021/08/13 14:09:21;;;;;;;9.33;3.00;;;;;;;30.63;32.92;100734.66;6206665;28;19928;-74
2021/08/13 14:12:22;;;;;;;;;;;;;;;30.52;31.63;100727.22;6224519;28;20065;-75